sensor_id;sensor_type;location;lat;lon;timestamp;P1;durP1;ratioP1;P2;durP2;ratioP2
10503;SDS011;5299;48.704;9.138;2022-12-07T00:03:16;16.98;;;10.90;;
10503;SDS011;5299;48.704;9.138;2022-12-07T00:07:18;12.68;;;9.30;;
10503;SDS011;5299;48.704;9.138;2022-12-07T00:11:27;13.07;;;9.80;;
10503;SDS011;5299;48.704;9.138;2022-12-07T00:15:29;14.00;;;10.57;;
10503;SDS011;5299;48.704;9.138;2022-12-07T00:19:31;16.80;;;10.38;;
10503;SDS011;5299;48.704;9.138;2022-12-07T00:23:33;15.93;;;9.57;;
10503;SDS011;5299;48.704;9.138;2022-12-07T00:27:35;16.33;;;10.43;;
10503;SDS011;5299;48.704;9.138;2022-12-07T00:31:37;15.27;;;10.23;;
10503;SDS011;5299;48.704;9.138;2022-12-07T00:35:42;14.77;;;10.65;;
10503;SDS011;5299;48.704;9.138;2022-12-07T00:39:43;14.73;;;11.23;;
10503;SDS011;5299;48.704;9.138;2022-12-07T00:43:48;16.25;;;11.77;;
10503;SDS011;5299;48.704;9.138;2022-12-07T00:47:50;18.17;;;12.95;;
10503;SDS011;5299;48.704;9.138;2022-12-07T00:51:51;16.33;;;11.00;;
10503;SDS011;5299;48.704;9.138;2022-12-07T00:55:53;17.17;;;11.60;;
10503;SDS011;5299;48.704;9.138;2022-12-07T00:59:56;18.20;;;12.23;;
10503;SDS011;5299;48.704;9.138;2022-12-07T01:03:59;16.20;;;12.52;;
10503;SDS011;5299;48.704;9.138;2022-12-07T01:08:02;15.23;;;12.23;;
10503;SDS011;5299;48.704;9.138;2022-12-07T01:12:05;17.52;;;11.55;;
10503;SDS011;5299;48.704;9.138;2022-12-07T01:16:07;12.65;;;11.00;;
10503;SDS011;5299;48.704;9.138;2022-12-07T01:20:09;16.67;;;10.70;;
10503;SDS011;5299;48.704;9.138;2022-12-07T01:24:11;15.05;;;9.80;;
10503;SDS011;5299;48.704;9.138;2022-12-07T01:28:13;14.43;;;11.27;;
10503;SDS011;5299;48.704;9.138;2022-12-07T01:32:14;19.75;;;12.30;;
10503;SDS011;5299;48.704;9.138;2022-12-07T01:36:23;13.77;;;9.55;;
10503;SDS011;5299;48.704;9.138;2022-12-07T01:40:26;16.05;;;12.10;;
10503;SDS011;5299;48.704;9.138;2022-12-07T01:44:31;13.82;;;9.63;;
10503;SDS011;5299;48.704;9.138;2022-12-07T01:48:38;13.17;;;10.17;;
10503;SDS011;5299;48.704;9.138;2022-12-07T01:52:41;14.63;;;10.77;;
10503;SDS011;5299;48.704;9.138;2022-12-07T01:56:50;14.75;;;10.82;;
10503;SDS011;5299;48.704;9.138;2022-12-07T02:00:53;16.33;;;11.75;;
10503;SDS011;5299;48.704;9.138;2022-12-07T02:04:55;15.02;;;12.40;;
10503;SDS011;5299;48.704;9.138;2022-12-07T02:08:57;15.18;;;11.77;;
10503;SDS011;5299;48.704;9.138;2022-12-07T02:13:06;18.13;;;12.38;;
10503;SDS011;5299;48.704;9.138;2022-12-07T02:17:14;16.90;;;11.48;;
10503;SDS011;5299;48.704;9.138;2022-12-07T02:33:49;15.60;;;11.32;;
10503;SDS011;5299;48.704;9.138;2022-12-07T02:42:13;15.65;;;11.57;;
10503;SDS011;5299;48.704;9.138;2022-12-07T02:46:20;16.40;;;11.88;;
10503;SDS011;5299;48.704;9.138;2022-12-07T02:50:24;17.70;;;12.30;;
10503;SDS011;5299;48.704;9.138;2022-12-07T02:54:26;18.90;;;12.70;;
10503;SDS011;5299;48.704;9.138;2022-12-07T03:02:41;16.50;;;12.55;;
10503;SDS011;5299;48.704;9.138;2022-12-07T03:06:55;15.82;;;11.93;;
10503;SDS011;5299;48.704;9.138;2022-12-07T03:11:00;17.30;;;11.27;;
10503;SDS011;5299;48.704;9.138;2022-12-07T03:15:12;16.92;;;11.52;;
10503;SDS011;5299;48.704;9.138;2022-12-07T03:19:19;13.20;;;10.00;;
10503;SDS011;5299;48.704;9.138;2022-12-07T03:23:22;14.95;;;10.85;;
10503;SDS011;5299;48.704;9.138;2022-12-07T03:27:26;13.90;;;9.80;;
10503;SDS011;5299;48.704;9.138;2022-12-07T03:31:32;16.70;;;10.70;;
10503;SDS011;5299;48.704;9.138;2022-12-07T03:35:40;13.57;;;9.60;;
10503;SDS011;5299;48.704;9.138;2022-12-07T03:39:59;13.35;;;9.32;;
10503;SDS011;5299;48.704;9.138;2022-12-07T03:44:05;15.75;;;9.98;;
10503;SDS011;5299;48.704;9.138;2022-12-07T03:48:15;15.25;;;9.88;;
10503;SDS011;5299;48.704;9.138;2022-12-07T03:56:25;19.63;;;11.57;;
10503;SDS011;5299;48.704;9.138;2022-12-07T04:00:27;15.57;;;11.18;;
10503;SDS011;5299;48.704;9.138;2022-12-07T04:04:29;15.18;;;11.10;;
10503;SDS011;5299;48.704;9.138;2022-12-07T04:08:31;14.48;;;10.13;;
10503;SDS011;5299;48.704;9.138;2022-12-07T04:12:33;13.98;;;9.57;;
10503;SDS011;5299;48.704;9.138;2022-12-07T04:16:35;18.95;;;10.30;;
10503;SDS011;5299;48.704;9.138;2022-12-07T04:20:45;13.00;;;9.70;;
10503;SDS011;5299;48.704;9.138;2022-12-07T04:24:47;15.90;;;10.25;;
10503;SDS011;5299;48.704;9.138;2022-12-07T04:28:48;13.90;;;9.30;;
10503;SDS011;5299;48.704;9.138;2022-12-07T04:32:50;13.00;;;8.75;;
10503;SDS011;5299;48.704;9.138;2022-12-07T04:36:52;13.15;;;8.52;;
10503;SDS011;5299;48.704;9.138;2022-12-07T04:40:53;12.75;;;9.50;;
10503;SDS011;5299;48.704;9.138;2022-12-07T04:44:55;10.45;;;7.07;;
10503;SDS011;5299;48.704;9.138;2022-12-07T04:48:57;11.75;;;8.07;;
10503;SDS011;5299;48.704;9.138;2022-12-07T04:52:58;14.32;;;6.05;;
10503;SDS011;5299;48.704;9.138;2022-12-07T04:57:00;7.22;;;4.38;;
10503;SDS011;5299;48.704;9.138;2022-12-07T05:01:02;6.63;;;4.28;;
10503;SDS011;5299;48.704;9.138;2022-12-07T05:05:04;7.40;;;5.10;;
10503;SDS011;5299;48.704;9.138;2022-12-07T05:09:06;8.15;;;5.30;;
10503;SDS011;5299;48.704;9.138;2022-12-07T05:13:07;9.32;;;6.22;;
10503;SDS011;5299;48.704;9.138;2022-12-07T05:17:09;8.07;;;5.35;;
10503;SDS011;5299;48.704;9.138;2022-12-07T05:21:12;8.13;;;5.53;;
10503;SDS011;5299;48.704;9.138;2022-12-07T05:25:14;10.02;;;7.22;;
10503;SDS011;5299;48.704;9.138;2022-12-07T05:29:16;10.38;;;6.72;;
10503;SDS011;5299;48.704;9.138;2022-12-07T05:33:18;9.88;;;7.00;;
10503;SDS011;5299;48.704;9.138;2022-12-07T05:37:20;10.77;;;6.90;;
10503;SDS011;5299;48.704;9.138;2022-12-07T05:41:22;9.75;;;6.93;;
10503;SDS011;5299;48.704;9.138;2022-12-07T05:45:42;16.88;;;11.82;;
10503;SDS011;5299;48.704;9.138;2022-12-07T05:49:44;15.13;;;9.45;;
10503;SDS011;5299;48.704;9.138;2022-12-07T05:53:46;13.02;;;8.65;;
10503;SDS011;5299;48.704;9.138;2022-12-07T05:57:47;11.70;;;7.88;;
10503;SDS011;5299;48.704;9.138;2022-12-07T06:02:09;9.43;;;5.85;;
10503;SDS011;5299;48.704;9.138;2022-12-07T06:06:12;10.55;;;7.68;;
10503;SDS011;5299;48.704;9.138;2022-12-07T06:10:14;10.98;;;7.30;;
10503;SDS011;5299;48.704;9.138;2022-12-07T06:14:18;10.52;;;6.95;;
10503;SDS011;5299;48.704;9.138;2022-12-07T06:18:20;11.52;;;6.43;;
10503;SDS011;5299;48.704;9.138;2022-12-07T06:22:22;11.98;;;7.88;;
10503;SDS011;5299;48.704;9.138;2022-12-07T06:26:23;11.77;;;8.27;;
10503;SDS011;5299;48.704;9.138;2022-12-07T06:30:25;13.15;;;7.68;;
10503;SDS011;5299;48.704;9.138;2022-12-07T06:34:27;20.20;;;8.95;;
10503;SDS011;5299;48.704;9.138;2022-12-07T06:38:29;9.82;;;7.72;;
10503;SDS011;5299;48.704;9.138;2022-12-07T06:42:31;13.48;;;8.32;;
10503;SDS011;5299;48.704;9.138;2022-12-07T06:46:34;16.75;;;9.13;;
10503;SDS011;5299;48.704;9.138;2022-12-07T06:50:38;12.63;;;7.40;;
10503;SDS011;5299;48.704;9.138;2022-12-07T06:54:40;13.43;;;8.43;;
10503;SDS011;5299;48.704;9.138;2022-12-07T06:58:42;13.70;;;8.80;;
10503;SDS011;5299;48.704;9.138;2022-12-07T07:02:43;9.77;;;7.50;;
10503;SDS011;5299;48.704;9.138;2022-12-07T07:06:45;14.50;;;7.28;;
10503;SDS011;5299;48.704;9.138;2022-12-07T07:10:47;10.63;;;7.55;;
10503;SDS011;5299;48.704;9.138;2022-12-07T07:14:48;12.48;;;7.95;;
10503;SDS011;5299;48.704;9.138;2022-12-07T07:18:50;10.35;;;7.30;;
10503;SDS011;5299;48.704;9.138;2022-12-07T07:22:55;11.02;;;7.50;;
10503;SDS011;5299;48.704;9.138;2022-12-07T07:26:58;11.30;;;7.30;;
10503;SDS011;5299;48.704;9.138;2022-12-07T07:31:00;11.95;;;9.25;;
10503;SDS011;5299;48.704;9.138;2022-12-07T07:35:02;12.85;;;10.32;;
10503;SDS011;5299;48.704;9.138;2022-12-07T07:39:04;14.20;;;8.90;;
10503;SDS011;5299;48.704;9.138;2022-12-07T07:43:06;13.88;;;9.48;;
10503;SDS011;5299;48.704;9.138;2022-12-07T07:47:07;12.27;;;8.55;;
10503;SDS011;5299;48.704;9.138;2022-12-07T07:51:09;13.50;;;9.60;;
10503;SDS011;5299;48.704;9.138;2022-12-07T07:55:11;13.88;;;9.32;;
10503;SDS011;5299;48.704;9.138;2022-12-07T07:59:14;13.45;;;10.05;;
10503;SDS011;5299;48.704;9.138;2022-12-07T08:03:17;13.27;;;9.50;;
10503;SDS011;5299;48.704;9.138;2022-12-07T08:07:18;14.63;;;9.25;;
10503;SDS011;5299;48.704;9.138;2022-12-07T08:11:20;13.18;;;9.02;;
10503;SDS011;5299;48.704;9.138;2022-12-07T08:15:21;12.95;;;9.00;;
10503;SDS011;5299;48.704;9.138;2022-12-07T08:19:23;13.23;;;9.75;;
10503;SDS011;5299;48.704;9.138;2022-12-07T08:23:24;12.80;;;9.38;;
10503;SDS011;5299;48.704;9.138;2022-12-07T08:27:39;16.13;;;9.25;;
10503;SDS011;5299;48.704;9.138;2022-12-07T08:31:41;12.90;;;8.68;;
10503;SDS011;5299;48.704;9.138;2022-12-07T08:35:43;14.50;;;9.60;;
10503;SDS011;5299;48.704;9.138;2022-12-07T08:39:44;11.68;;;8.57;;
10503;SDS011;5299;48.704;9.138;2022-12-07T08:43:46;12.00;;;8.82;;
10503;SDS011;5299;48.704;9.138;2022-12-07T08:51:57;11.57;;;8.02;;
10503;SDS011;5299;48.704;9.138;2022-12-07T08:55:58;12.70;;;8.50;;
10503;SDS011;5299;48.704;9.138;2022-12-07T09:00:00;12.77;;;7.43;;
10503;SDS011;5299;48.704;9.138;2022-12-07T09:04:02;17.27;;;10.32;;
10503;SDS011;5299;48.704;9.138;2022-12-07T09:08:04;11.15;;;7.22;;
10503;SDS011;5299;48.704;9.138;2022-12-07T09:12:06;10.27;;;7.40;;
10503;SDS011;5299;48.704;9.138;2022-12-07T09:16:08;10.73;;;8.23;;
10503;SDS011;5299;48.704;9.138;2022-12-07T09:20:10;13.18;;;8.02;;
10503;SDS011;5299;48.704;9.138;2022-12-07T09:24:12;10.65;;;7.38;;
10503;SDS011;5299;48.704;9.138;2022-12-07T09:28:15;11.15;;;6.95;;
10503;SDS011;5299;48.704;9.138;2022-12-07T09:32:16;7.18;;;4.95;;
10503;SDS011;5299;48.704;9.138;2022-12-07T09:36:18;9.18;;;6.18;;
10503;SDS011;5299;48.704;9.138;2022-12-07T09:40:21;9.85;;;6.43;;
10503;SDS011;5299;48.704;9.138;2022-12-07T09:44:24;8.85;;;6.22;;
10503;SDS011;5299;48.704;9.138;2022-12-07T09:48:29;8.80;;;5.60;;
10503;SDS011;5299;48.704;9.138;2022-12-07T09:52:32;10.90;;;6.30;;
10503;SDS011;5299;48.704;9.138;2022-12-07T09:56:39;8.85;;;5.32;;
10503;SDS011;5299;48.704;9.138;2022-12-07T10:00:41;9.55;;;5.60;;
10503;SDS011;5299;48.704;9.138;2022-12-07T10:04:42;9.20;;;5.95;;
10503;SDS011;5299;48.704;9.138;2022-12-07T10:08:44;8.90;;;5.35;;
10503;SDS011;5299;48.704;9.138;2022-12-07T10:12:59;8.40;;;4.65;;
10503;SDS011;5299;48.704;9.138;2022-12-07T10:17:20;7.38;;;5.15;;
10503;SDS011;5299;48.704;9.138;2022-12-07T10:21:27;10.38;;;6.05;;
10503;SDS011;5299;48.704;9.138;2022-12-07T10:25:34;8.32;;;5.82;;
10503;SDS011;5299;48.704;9.138;2022-12-07T10:29:37;10.73;;;5.10;;
10503;SDS011;5299;48.704;9.138;2022-12-07T10:33:50;8.23;;;4.55;;
10503;SDS011;5299;48.704;9.138;2022-12-07T10:37:54;8.27;;;5.00;;
10503;SDS011;5299;48.704;9.138;2022-12-07T10:41:58;7.85;;;5.15;;
10503;SDS011;5299;48.704;9.138;2022-12-07T11:11:46;8.70;;;5.10;;
10503;SDS011;5299;48.704;9.138;2022-12-07T11:20:13;7.82;;;4.28;;
10503;SDS011;5299;48.704;9.138;2022-12-07T11:24:23;6.90;;;4.53;;
10503;SDS011;5299;48.704;9.138;2022-12-07T11:29:01;10.20;;;4.70;;
10503;SDS011;5299;48.704;9.138;2022-12-07T11:33:17;6.15;;;4.15;;
10503;SDS011;5299;48.704;9.138;2022-12-07T11:37:33;7.57;;;5.00;;
10503;SDS011;5299;48.704;9.138;2022-12-07T11:41:39;8.73;;;4.40;;
10503;SDS011;5299;48.704;9.138;2022-12-07T11:45:42;9.00;;;5.22;;
10503;SDS011;5299;48.704;9.138;2022-12-07T11:54:13;5.70;;;4.00;;
10503;SDS011;5299;48.704;9.138;2022-12-07T11:58:22;6.68;;;3.97;;
10503;SDS011;5299;48.704;9.138;2022-12-07T12:02:31;8.45;;;4.32;;
10503;SDS011;5299;48.704;9.138;2022-12-07T12:06:52;8.27;;;5.05;;
10503;SDS011;5299;48.704;9.138;2022-12-07T12:11:03;7.47;;;4.05;;
10503;SDS011;5299;48.704;9.138;2022-12-07T12:15:23;6.25;;;3.67;;
10503;SDS011;5299;48.704;9.138;2022-12-07T12:24:02;6.55;;;4.00;;
10503;SDS011;5299;48.704;9.138;2022-12-07T12:28:18;6.00;;;3.63;;
10503;SDS011;5299;48.704;9.138;2022-12-07T12:32:38;6.45;;;3.97;;
10503;SDS011;5299;48.704;9.138;2022-12-07T12:40:42;5.93;;;3.95;;
10503;SDS011;5299;48.704;9.138;2022-12-07T12:53:26;6.25;;;3.75;;
10503;SDS011;5299;48.704;9.138;2022-12-07T12:57:32;4.95;;;2.70;;
10503;SDS011;5299;48.704;9.138;2022-12-07T13:01:40;4.80;;;2.83;;
10503;SDS011;5299;48.704;9.138;2022-12-07T13:06:06;9.48;;;6.50;;
10503;SDS011;5299;48.704;9.138;2022-12-07T13:25:36;6.57;;;3.97;;
10503;SDS011;5299;48.704;9.138;2022-12-07T13:52:33;5.72;;;3.05;;
10503;SDS011;5299;48.704;9.138;2022-12-07T13:57:03;5.28;;;2.90;;
10503;SDS011;5299;48.704;9.138;2022-12-07T14:01:34;4.68;;;2.95;;
10503;SDS011;5299;48.704;9.138;2022-12-07T14:05:43;4.32;;;2.97;;
10503;SDS011;5299;48.704;9.138;2022-12-07T14:10:37;7.38;;;2.63;;
10503;SDS011;5299;48.704;9.138;2022-12-07T14:14:57;4.25;;;3.00;;
10503;SDS011;5299;48.704;9.138;2022-12-07T14:24:16;5.37;;;3.30;;
10503;SDS011;5299;48.704;9.138;2022-12-07T14:28:32;4.30;;;2.90;;
10503;SDS011;5299;48.704;9.138;2022-12-07T14:32:39;6.63;;;3.63;;
10503;SDS011;5299;48.704;9.138;2022-12-07T14:36:44;5.35;;;2.63;;
10503;SDS011;5299;48.704;9.138;2022-12-07T14:40:46;10.25;;;6.53;;
10503;SDS011;5299;48.704;9.138;2022-12-07T14:44:47;22.15;;;17.90;;
10503;SDS011;5299;48.704;9.138;2022-12-07T14:48:49;9.95;;;5.80;;
10503;SDS011;5299;48.704;9.138;2022-12-07T14:53:21;7.15;;;4.60;;
10503;SDS011;5299;48.704;9.138;2022-12-07T14:57:42;9.80;;;6.43;;
10503;SDS011;5299;48.704;9.138;2022-12-07T15:02:08;7.82;;;5.32;;
10503;SDS011;5299;48.704;9.138;2022-12-07T15:06:34;15.07;;;8.10;;
10503;SDS011;5299;48.704;9.138;2022-12-07T15:10:48;6.03;;;4.40;;
10503;SDS011;5299;48.704;9.138;2022-12-07T15:14:52;7.07;;;3.05;;
10503;SDS011;5299;48.704;9.138;2022-12-07T15:19:05;5.57;;;3.03;;
10503;SDS011;5299;48.704;9.138;2022-12-07T15:23:40;12.65;;;7.22;;
10503;SDS011;5299;48.704;9.138;2022-12-07T15:28:00;16.45;;;10.88;;
10503;SDS011;5299;48.704;9.138;2022-12-07T15:32:02;11.05;;;7.82;;
10503;SDS011;5299;48.704;9.138;2022-12-07T15:36:15;10.38;;;7.65;;
10503;SDS011;5299;48.704;9.138;2022-12-07T15:40:38;6.38;;;4.47;;
10503;SDS011;5299;48.704;9.138;2022-12-07T15:44:47;10.30;;;5.95;;
10503;SDS011;5299;48.704;9.138;2022-12-07T15:49:20;9.90;;;6.47;;
10503;SDS011;5299;48.704;9.138;2022-12-07T15:53:24;9.50;;;5.47;;
10503;SDS011;5299;48.704;9.138;2022-12-07T16:07:31;10.32;;;7.05;;
10503;SDS011;5299;48.704;9.138;2022-12-07T16:45:51;12.43;;;8.60;;
10503;SDS011;5299;48.704;9.138;2022-12-07T16:55:45;10.73;;;7.93;;
10503;SDS011;5299;48.704;9.138;2022-12-07T17:10:51;11.10;;;6.83;;
10503;SDS011;5299;48.704;9.138;2022-12-07T17:21:08;15.02;;;9.38;;
10503;SDS011;5299;48.704;9.138;2022-12-07T17:55:53;12.90;;;9.05;;
10503;SDS011;5299;48.704;9.138;2022-12-07T18:00:38;17.20;;;11.30;;
10503;SDS011;5299;48.704;9.138;2022-12-07T18:15:18;14.10;;;9.73;;
10503;SDS011;5299;48.704;9.138;2022-12-07T18:19:19;14.23;;;9.68;;
10503;SDS011;5299;48.704;9.138;2022-12-07T18:23:21;18.45;;;9.70;;
10503;SDS011;5299;48.704;9.138;2022-12-07T18:27:23;16.25;;;9.25;;
10503;SDS011;5299;48.704;9.138;2022-12-07T18:31:24;10.25;;;8.38;;
10503;SDS011;5299;48.704;9.138;2022-12-07T18:35:26;11.20;;;7.80;;
10503;SDS011;5299;48.704;9.138;2022-12-07T18:39:29;11.15;;;7.95;;
10503;SDS011;5299;48.704;9.138;2022-12-07T18:43:34;12.68;;;7.55;;
10503;SDS011;5299;48.704;9.138;2022-12-07T18:47:36;13.70;;;9.00;;
10503;SDS011;5299;48.704;9.138;2022-12-07T18:51:37;15.10;;;9.75;;
10503;SDS011;5299;48.704;9.138;2022-12-07T18:55:39;15.85;;;10.70;;
10503;SDS011;5299;48.704;9.138;2022-12-07T18:59:41;12.40;;;8.52;;
10503;SDS011;5299;48.704;9.138;2022-12-07T19:03:49;17.08;;;12.50;;
10503;SDS011;5299;48.704;9.138;2022-12-07T19:07:52;17.25;;;12.45;;
10503;SDS011;5299;48.704;9.138;2022-12-07T19:11:54;16.52;;;11.30;;
10503;SDS011;5299;48.704;9.138;2022-12-07T19:15:56;16.23;;;11.23;;
10503;SDS011;5299;48.704;9.138;2022-12-07T19:19:58;14.45;;;9.68;;
10503;SDS011;5299;48.704;9.138;2022-12-07T19:24:03;15.60;;;10.35;;
10503;SDS011;5299;48.704;9.138;2022-12-07T19:28:05;13.95;;;9.65;;
10503;SDS011;5299;48.704;9.138;2022-12-07T19:32:07;12.55;;;9.10;;
10503;SDS011;5299;48.704;9.138;2022-12-07T19:36:10;13.98;;;9.65;;
10503;SDS011;5299;48.704;9.138;2022-12-07T19:40:12;18.02;;;9.05;;
10503;SDS011;5299;48.704;9.138;2022-12-07T19:44:14;11.95;;;8.25;;
10503;SDS011;5299;48.704;9.138;2022-12-07T19:48:17;12.25;;;8.35;;
10503;SDS011;5299;48.704;9.138;2022-12-07T19:52:19;11.90;;;8.98;;
10503;SDS011;5299;48.704;9.138;2022-12-07T19:56:21;12.88;;;8.90;;
10503;SDS011;5299;48.704;9.138;2022-12-07T20:00:23;14.95;;;9.25;;
10503;SDS011;5299;48.704;9.138;2022-12-07T20:04:25;13.02;;;8.80;;
10503;SDS011;5299;48.704;9.138;2022-12-07T20:08:29;18.42;;;10.70;;
10503;SDS011;5299;48.704;9.138;2022-12-07T20:12:31;15.00;;;9.15;;
10503;SDS011;5299;48.704;9.138;2022-12-07T20:16:53;13.80;;;8.40;;
10503;SDS011;5299;48.704;9.138;2022-12-07T20:20:55;13.05;;;8.48;;
10503;SDS011;5299;48.704;9.138;2022-12-07T20:24:58;12.98;;;8.65;;
10503;SDS011;5299;48.704;9.138;2022-12-07T20:29:00;10.07;;;7.82;;
10503;SDS011;5299;48.704;9.138;2022-12-07T20:33:12;10.23;;;7.65;;
10503;SDS011;5299;48.704;9.138;2022-12-07T20:37:13;10.48;;;6.85;;
10503;SDS011;5299;48.704;9.138;2022-12-07T20:41:15;13.82;;;7.03;;
10503;SDS011;5299;48.704;9.138;2022-12-07T20:45:35;10.50;;;7.32;;
10503;SDS011;5299;48.704;9.138;2022-12-07T20:49:37;10.82;;;7.93;;
10503;SDS011;5299;48.704;9.138;2022-12-07T20:53:38;13.05;;;8.50;;
10503;SDS011;5299;48.704;9.138;2022-12-07T20:57:40;12.15;;;8.32;;
10503;SDS011;5299;48.704;9.138;2022-12-07T21:01:42;11.25;;;7.72;;
10503;SDS011;5299;48.704;9.138;2022-12-07T21:05:44;10.35;;;6.95;;
10503;SDS011;5299;48.704;9.138;2022-12-07T21:09:51;12.93;;;8.82;;
10503;SDS011;5299;48.704;9.138;2022-12-07T21:13:53;13.18;;;9.02;;
10503;SDS011;5299;48.704;9.138;2022-12-07T21:17:54;13.02;;;8.57;;
10503;SDS011;5299;48.704;9.138;2022-12-07T21:21:56;12.85;;;9.15;;
10503;SDS011;5299;48.704;9.138;2022-12-07T21:25:58;12.93;;;9.77;;
10503;SDS011;5299;48.704;9.138;2022-12-07T21:30:00;13.88;;;9.55;;
10503;SDS011;5299;48.704;9.138;2022-12-07T21:34:02;14.52;;;9.30;;
10503;SDS011;5299;48.704;9.138;2022-12-07T21:38:04;12.30;;;8.77;;
10503;SDS011;5299;48.704;9.138;2022-12-07T21:42:05;15.25;;;9.27;;
10503;SDS011;5299;48.704;9.138;2022-12-07T21:46:07;12.25;;;8.93;;
10503;SDS011;5299;48.704;9.138;2022-12-07T21:50:09;12.77;;;9.40;;
10503;SDS011;5299;48.704;9.138;2022-12-07T21:54:11;13.68;;;8.82;;
10503;SDS011;5299;48.704;9.138;2022-12-07T21:58:13;13.93;;;9.15;;
10503;SDS011;5299;48.704;9.138;2022-12-07T22:02:14;11.27;;;8.32;;
10503;SDS011;5299;48.704;9.138;2022-12-07T22:06:18;13.85;;;8.27;;
10503;SDS011;5299;48.704;9.138;2022-12-07T22:14:28;11.18;;;7.55;;
10503;SDS011;5299;48.704;9.138;2022-12-07T22:18:49;12.27;;;8.55;;
10503;SDS011;5299;48.704;9.138;2022-12-07T22:22:51;11.00;;;8.15;;
10503;SDS011;5299;48.704;9.138;2022-12-07T22:26:53;13.10;;;8.30;;
10503;SDS011;5299;48.704;9.138;2022-12-07T22:31:00;12.75;;;8.68;;
10503;SDS011;5299;48.704;9.138;2022-12-07T22:35:10;12.65;;;8.95;;
10503;SDS011;5299;48.704;9.138;2022-12-07T22:39:12;11.48;;;8.10;;
10503;SDS011;5299;48.704;9.138;2022-12-07T22:43:14;13.27;;;8.13;;
10503;SDS011;5299;48.704;9.138;2022-12-07T22:47:16;12.77;;;9.02;;
10503;SDS011;5299;48.704;9.138;2022-12-07T22:51:28;11.88;;;8.30;;
10503;SDS011;5299;48.704;9.138;2022-12-07T22:55:31;10.55;;;8.23;;
10503;SDS011;5299;48.704;9.138;2022-12-07T22:59:33;14.18;;;9.45;;
10503;SDS011;5299;48.704;9.138;2022-12-07T23:03:35;13.20;;;10.48;;
10503;SDS011;5299;48.704;9.138;2022-12-07T23:07:36;12.82;;;9.10;;
10503;SDS011;5299;48.704;9.138;2022-12-07T23:11:39;12.52;;;8.52;;
10503;SDS011;5299;48.704;9.138;2022-12-07T23:16:11;11.70;;;8.35;;
10503;SDS011;5299;48.704;9.138;2022-12-07T23:20:14;12.23;;;8.52;;
10503;SDS011;5299;48.704;9.138;2022-12-07T23:24:16;10.88;;;7.70;;
10503;SDS011;5299;48.704;9.138;2022-12-07T23:28:18;12.75;;;8.30;;
10503;SDS011;5299;48.704;9.138;2022-12-07T23:32:20;11.82;;;8.23;;
10503;SDS011;5299;48.704;9.138;2022-12-07T23:36:23;13.10;;;9.30;;
10503;SDS011;5299;48.704;9.138;2022-12-07T23:40:26;10.60;;;7.50;;
10503;SDS011;5299;48.704;9.138;2022-12-07T23:44:27;9.90;;;7.47;;
10503;SDS011;5299;48.704;9.138;2022-12-07T23:48:29;10.60;;;7.10;;
10503;SDS011;5299;48.704;9.138;2022-12-07T23:52:31;9.90;;;6.60;;
10503;SDS011;5299;48.704;9.138;2022-12-07T23:56:33;11.40;;;8.15;;
